createdAt,value
2018-10-11T00:01:24.330Z,99872.00
2018-10-11T00:03:54.049Z,99876.00
2018-10-11T00:06:24.269Z,99879.00
2018-10-11T00:08:55.041Z,99886.00
2018-10-11T00:11:24.591Z,99884.00
2018-10-11T00:13:54.068Z,99879.00
2018-10-11T00:16:23.507Z,99883.00
2018-10-11T00:18:53.109Z,99885.00
2018-10-11T00:21:22.521Z,99881.00
2018-10-11T00:23:51.987Z,99877.00
2018-10-11T00:26:21.442Z,99872.00
2018-10-11T00:28:51.070Z,99875.00
2018-10-11T00:31:20.665Z,99866.00
2018-10-11T00:33:50.279Z,99865.00
2018-10-11T00:36:19.785Z,99872.00
2018-10-11T00:38:49.321Z,99866.00
2018-10-11T00:41:19.719Z,99861.00
2018-10-11T00:43:49.345Z,99866.00
2018-10-11T00:46:19.069Z,99864.00
2018-10-11T00:48:48.453Z,99858.00
2018-10-11T00:51:17.863Z,99862.00
2018-10-11T00:53:48.432Z,99862.00
2018-10-11T00:56:17.872Z,99865.00
2018-10-11T00:58:47.405Z,99854.00
2018-10-11T01:01:16.724Z,99861.00
2018-10-11T01:03:46.220Z,99860.00
2018-10-11T01:06:15.603Z,99860.00
2018-10-11T01:08:45.094Z,99858.00
2018-10-11T01:11:15.379Z,99840.00
2018-10-11T01:13:45.408Z,99853.00
2018-10-11T01:16:14.933Z,99853.00
2018-10-11T01:18:44.531Z,99844.00
2018-10-11T01:21:13.952Z,99848.00
2018-10-11T01:23:43.415Z,99848.00
2018-10-11T01:26:12.874Z,99850.00
2018-10-11T01:28:42.340Z,99842.00
2018-10-11T01:31:17.067Z,99833.00
2018-10-11T01:33:46.548Z,99835.00
2018-10-11T01:36:15.968Z,99822.00
2018-10-11T01:38:47.301Z,99823.00
2018-10-11T01:41:16.875Z,99826.00
2018-10-11T01:43:47.195Z,99830.00
2018-10-11T01:46:16.750Z,99821.00
2018-10-11T01:48:46.912Z,99817.00
2018-10-11T01:51:16.309Z,99826.00
2018-10-11T01:53:45.926Z,99823.00
2018-10-11T01:56:15.437Z,99825.00
2018-10-11T01:58:44.953Z,99821.00
2018-10-11T02:01:14.341Z,99819.00
2018-10-11T02:03:43.781Z,99826.00
2018-10-11T02:06:13.350Z,99828.00
2018-10-11T02:08:42.880Z,99819.00
2018-10-11T02:11:12.597Z,99811.00
2018-10-11T02:13:42.064Z,99827.00
2018-10-11T02:16:11.418Z,99830.00
2018-10-11T02:18:41.900Z,99829.00
2018-10-11T02:21:11.655Z,99830.00
2018-10-11T02:23:41.044Z,99830.00
2018-10-11T02:26:10.511Z,99832.00
2018-10-11T02:28:39.906Z,99833.00
2018-10-11T02:31:09.294Z,99831.00
2018-10-11T02:33:38.811Z,99818.00
2018-10-11T02:36:08.416Z,99823.00
2018-10-11T02:38:37.977Z,99822.00
2018-10-11T02:41:07.743Z,99822.00
2018-10-11T02:43:37.121Z,99813.00
2018-10-11T02:46:06.940Z,99824.00
2018-10-11T02:48:36.426Z,99827.00
2018-10-11T02:51:06.705Z,99817.00
2018-10-11T02:53:36.282Z,99819.00
2018-10-11T02:56:06.849Z,99818.00
2018-10-11T02:58:53.191Z,99811.00
2018-10-11T03:01:23.693Z,99820.00
2018-10-11T03:04:06.509Z,99805.00
2018-10-11T03:06:37.937Z,99807.00
2018-10-11T03:09:08.688Z,99810.00
2018-10-11T03:11:38.779Z,99807.00
2018-10-11T03:14:08.394Z,99806.00
2018-10-11T03:16:37.798Z,99802.00
2018-10-11T03:19:07.276Z,99804.00
2018-10-11T03:21:36.724Z,99809.00
2018-10-11T03:24:06.059Z,99803.00
2018-10-11T03:26:35.925Z,99804.00
2018-10-11T03:29:05.472Z,99792.00
2018-10-11T03:31:34.956Z,99794.00
2018-10-11T03:34:04.591Z,99789.00
2018-10-11T03:36:33.988Z,99787.00
2018-10-11T03:39:03.795Z,99778.00
2018-10-11T03:41:33.301Z,99779.00
2018-10-11T03:44:02.773Z,99781.00
2018-10-11T03:46:33.082Z,99781.00
2018-10-11T03:49:02.624Z,99777.00
2018-10-11T03:51:32.035Z,99778.00
2018-10-11T03:54:01.525Z,99761.00
2018-10-11T03:56:31.017Z,99760.00
2018-10-11T03:59:00.601Z,99754.00
2018-10-11T04:01:31.460Z,99745.00
2018-10-11T04:04:01.059Z,99746.00
2018-10-11T04:06:30.538Z,99740.00
2018-10-11T04:09:00.041Z,99751.00
2018-10-11T04:11:29.573Z,99744.00
2018-10-11T04:13:59.126Z,99737.00
2018-10-11T04:16:28.673Z,99740.00
2018-10-11T04:18:58.134Z,99747.00
2018-10-11T04:21:27.740Z,99735.00
2018-10-11T04:23:57.341Z,99741.00
2018-10-11T04:26:26.839Z,99733.00
2018-10-11T04:28:56.344Z,99731.00
2018-10-11T04:31:25.771Z,99746.00
2018-10-11T04:33:55.202Z,99733.00
2018-10-11T04:36:24.921Z,99734.00
2018-10-11T04:38:54.396Z,99728.00
2018-10-11T04:41:23.821Z,99731.00
2018-10-11T04:43:53.234Z,99723.00
2018-10-11T04:46:22.606Z,99729.00
2018-10-11T04:48:51.980Z,99724.00
2018-10-11T04:51:21.331Z,99723.00
2018-10-11T04:53:56.128Z,99721.00
2018-10-11T04:56:27.572Z,99727.00
2018-10-11T04:58:57.728Z,99731.00
2018-10-11T05:01:27.699Z,99723.00
2018-10-11T05:03:57.330Z,99729.00
2018-10-11T05:06:26.723Z,99724.00
2018-10-11T05:08:56.906Z,99727.00
2018-10-11T05:11:26.465Z,99723.00
2018-10-11T05:13:58.205Z,99728.00
2018-10-11T05:16:27.666Z,99734.00
2018-10-11T05:19:03.346Z,99727.00
2018-10-11T05:21:32.814Z,99725.00
2018-10-11T05:24:02.200Z,99731.00
2018-10-11T05:26:31.613Z,99732.00
2018-10-11T05:29:01.039Z,99738.00
2018-10-11T05:31:31.078Z,99736.00
2018-10-11T05:34:00.499Z,99740.00
2018-10-11T05:36:29.889Z,99730.00
2018-10-11T05:38:59.282Z,99738.00
2018-10-11T05:41:28.683Z,99735.00
2018-10-11T05:43:58.144Z,99733.00
2018-10-11T05:46:30.516Z,99741.00
2018-10-11T05:49:01.387Z,99741.00
2018-10-11T05:51:31.978Z,99748.00
2018-10-11T05:54:02.793Z,99749.00
2018-10-11T05:56:34.962Z,99759.00
2018-10-11T05:59:04.981Z,99761.00
2018-10-11T06:01:34.889Z,99773.00
2018-10-11T06:04:05.966Z,99771.00
2018-10-11T06:06:35.340Z,99769.00
2018-10-11T06:09:06.034Z,99769.00
2018-10-11T06:11:35.528Z,99764.00
2018-10-11T06:14:04.974Z,99754.00
2018-10-11T06:16:34.499Z,99755.00
2018-10-11T06:19:04.141Z,99744.00
2018-10-11T06:21:33.600Z,99754.00
2018-10-11T06:24:03.045Z,99755.00
2018-10-11T06:26:32.498Z,99760.00
2018-10-11T06:29:02.055Z,99755.00
2018-10-11T06:31:31.578Z,99761.00
2018-10-11T06:34:01.107Z,99747.00
2018-10-11T06:36:30.850Z,99755.00
2018-10-11T06:39:00.974Z,99752.00
2018-10-11T06:41:30.512Z,99755.00
2018-10-11T06:44:00.050Z,99749.00
2018-10-11T06:46:29.641Z,99763.00
2018-10-11T06:48:59.194Z,99768.00
2018-10-11T06:51:29.329Z,99757.00
2018-10-11T06:53:58.834Z,99759.00
2018-10-11T06:56:28.237Z,99759.00
2018-10-11T06:58:57.665Z,99759.00
2018-10-11T07:01:27.094Z,99756.00
2018-10-11T07:03:56.469Z,99764.00
2018-10-11T07:06:25.891Z,99761.00
2018-10-11T07:08:55.271Z,99764.00
2018-10-11T07:11:24.739Z,99768.00
2018-10-11T07:13:54.251Z,99761.00
2018-10-11T07:16:23.636Z,99773.00
2018-10-11T07:18:52.990Z,99769.00
2018-10-11T07:21:22.392Z,99764.00
2018-10-11T07:23:51.772Z,99765.00
2018-10-11T07:26:21.268Z,99764.00
2018-10-11T07:28:50.725Z,99759.00
2018-10-11T07:31:20.132Z,99768.00
2018-10-11T07:33:49.547Z,99759.00
2018-10-11T07:36:18.922Z,99760.00
2018-10-11T07:38:48.360Z,99764.00
2018-10-11T07:41:17.798Z,99756.00
2018-10-11T07:43:47.184Z,99760.00
2018-10-11T07:46:16.707Z,99768.00
2018-10-11T07:48:46.083Z,99772.00
2018-10-11T07:51:15.488Z,99769.00
2018-10-11T07:53:44.880Z,99774.00
2018-10-11T07:56:14.269Z,99778.00
2018-10-11T07:58:43.686Z,99776.00
2018-10-11T08:01:13.098Z,99776.00
2018-10-11T08:03:42.437Z,99780.00
2018-10-11T08:06:11.888Z,99772.00
2018-10-11T08:08:41.283Z,99771.00
2018-10-11T08:11:10.749Z,99774.00
2018-10-11T08:13:40.106Z,99775.00
2018-10-11T08:16:09.762Z,99774.00
2018-10-11T08:18:39.104Z,99780.00
2018-10-11T08:21:08.434Z,99782.00
2018-10-11T08:23:37.902Z,99769.00
2018-10-11T08:26:08.079Z,99784.00
2018-10-11T08:28:37.349Z,99783.00
2018-10-11T08:31:07.247Z,99786.00
2018-10-11T08:33:37.303Z,99786.00
2018-10-11T08:36:06.740Z,99779.00
2018-10-11T08:38:36.217Z,99777.00
2018-10-11T08:41:05.580Z,99778.00
2018-10-11T08:43:34.997Z,99777.00
2018-10-11T08:46:04.395Z,99784.00
2018-10-11T08:48:33.799Z,99788.00
2018-10-11T08:51:03.207Z,99785.00
2018-10-11T08:53:32.679Z,99785.00
2018-10-11T08:56:02.061Z,99789.00
2018-10-11T08:58:31.463Z,99791.00
2018-10-11T09:01:00.988Z,99786.00
2018-10-11T09:03:31.869Z,99798.00
2018-10-11T09:06:01.128Z,99790.00
2018-10-11T09:08:30.516Z,99779.00
2018-10-11T09:10:59.953Z,99782.00
2018-10-11T09:13:29.285Z,99782.00
2018-10-11T09:15:58.677Z,99781.00
2018-10-11T09:18:28.059Z,99778.00
2018-10-11T09:20:57.441Z,99776.00
2018-10-11T09:23:26.816Z,99779.00
2018-10-11T09:25:56.200Z,99770.00
2018-10-11T09:28:25.578Z,99766.00
2018-10-11T09:30:54.924Z,99767.00
2018-10-11T09:33:24.294Z,99772.00
2018-10-11T09:35:53.683Z,99780.00
2018-10-11T09:38:23.055Z,99769.00
2018-10-11T09:40:52.501Z,99788.00
2018-10-11T09:43:21.957Z,99781.00
2018-10-11T09:45:51.337Z,99777.00
2018-10-11T09:48:21.424Z,99778.00
2018-10-11T09:50:50.857Z,99770.00
2018-10-11T09:53:20.265Z,99778.00
2018-10-11T09:55:49.767Z,99771.00
2018-10-11T09:58:19.120Z,99768.00
2018-10-11T10:00:53.917Z,99773.00
2018-10-11T10:03:23.417Z,99771.00
2018-10-11T10:05:52.833Z,99770.00
2018-10-11T10:08:22.265Z,99769.00
2018-10-11T10:10:51.640Z,99773.00
2018-10-11T10:13:21.023Z,99781.00
2018-10-11T10:15:51.025Z,99772.00
2018-10-11T10:18:20.460Z,99766.00
2018-10-11T10:20:49.886Z,99770.00
2018-10-11T10:23:19.315Z,99770.00
2018-10-11T10:25:48.791Z,99771.00
2018-10-11T10:28:18.243Z,99775.00
2018-10-11T10:30:53.715Z,99779.00
2018-10-11T10:33:24.235Z,99768.00
2018-10-11T10:35:53.714Z,99763.00
2018-10-11T10:38:23.781Z,99762.00
2018-10-11T10:40:53.200Z,99752.00
2018-10-11T10:43:22.577Z,99760.00
2018-10-11T10:45:52.190Z,99753.00
2018-10-11T10:48:21.585Z,99751.00
2018-10-11T10:50:50.989Z,99736.00
2018-10-11T10:53:20.369Z,99742.00
2018-10-11T10:55:49.781Z,99740.00
2018-10-11T10:58:19.227Z,99734.00
2018-10-11T11:00:48.702Z,99733.00
2018-10-11T11:03:18.283Z,99729.00
2018-10-11T11:05:47.710Z,99732.00
2018-10-11T11:08:17.166Z,99722.00
2018-10-11T11:10:46.636Z,99722.00
2018-10-11T11:13:16.078Z,99726.00
2018-10-11T11:15:45.445Z,99711.00
2018-10-11T11:18:14.857Z,99704.00
2018-10-11T11:20:44.273Z,99701.00
2018-10-11T11:23:13.665Z,99701.00
2018-10-11T11:25:43.090Z,99713.00
2018-10-11T11:28:12.516Z,99716.00
2018-10-11T11:30:41.926Z,99711.00
2018-10-11T11:33:11.287Z,99720.00
2018-10-11T11:35:40.941Z,99718.00
2018-10-11T11:38:10.567Z,99716.00
2018-10-11T11:40:40.032Z,99724.00
2018-10-11T11:43:09.452Z,99718.00
2018-10-11T11:45:39.038Z,99717.00
2018-10-11T11:48:08.447Z,99721.00
2018-10-11T11:50:37.995Z,99718.00
2018-10-11T11:53:07.441Z,99722.00
2018-10-11T11:55:36.866Z,99714.00
2018-10-11T11:58:06.382Z,99720.00
2018-10-11T12:00:35.761Z,99716.00
2018-10-11T12:03:05.198Z,99717.00
2018-10-11T12:05:34.655Z,99718.00
2018-10-11T12:08:04.064Z,99721.00
2018-10-11T12:10:33.500Z,99713.00
2018-10-11T12:13:03.980Z,99711.00
2018-10-11T12:15:34.045Z,99714.00
2018-10-11T12:18:04.361Z,99718.00
2018-10-11T12:20:35.007Z,99714.00
2018-10-11T12:23:05.505Z,99718.00
2018-10-11T12:25:35.174Z,99727.00
2018-10-11T12:28:04.654Z,99725.00
2018-10-11T12:30:34.141Z,99720.00
2018-10-11T12:33:03.883Z,99722.00
2018-10-11T12:35:33.277Z,99719.00
2018-10-11T12:38:02.961Z,99719.00
2018-10-11T12:40:32.426Z,99717.00
2018-10-11T12:43:01.870Z,99716.00
2018-10-11T12:45:31.266Z,99715.00
2018-10-11T12:48:00.679Z,99716.00
2018-10-11T12:50:30.102Z,99718.00
2018-10-11T12:52:59.668Z,99715.00
2018-10-11T12:55:29.128Z,99708.00
2018-10-11T12:57:58.579Z,99711.00
2018-10-11T13:00:28.017Z,99711.00
2018-10-11T13:02:57.521Z,99712.00
2018-10-11T13:05:26.942Z,99713.00
2018-10-11T13:07:56.393Z,99703.00
2018-10-11T13:10:25.774Z,99707.00
2018-10-11T13:12:56.614Z,99714.00
2018-10-11T13:15:25.021Z,99708.00
2018-10-11T13:17:54.457Z,99712.00
2018-10-11T13:20:23.848Z,99709.00
2018-10-11T13:22:53.300Z,99710.00
2018-10-11T13:25:22.668Z,99708.00
2018-10-11T13:27:52.096Z,99701.00
2018-10-11T13:30:21.582Z,99702.00
2018-10-11T13:32:51.152Z,99710.00
2018-10-11T13:35:20.674Z,99705.00
2018-10-11T13:37:50.038Z,99713.00
2018-10-11T13:40:19.528Z,99722.00
2018-10-11T13:42:48.988Z,99718.00
2018-10-11T13:45:18.412Z,99710.00
2018-10-11T13:47:47.898Z,99710.00
2018-10-11T13:50:17.436Z,99717.00
2018-10-11T13:52:46.861Z,99718.00
2018-10-11T13:55:16.244Z,99726.00
2018-10-11T13:57:45.624Z,99713.00
2018-10-11T14:00:15.108Z,99713.00
2018-10-11T14:02:44.601Z,99718.00
2018-10-11T14:05:13.960Z,99716.00
2018-10-11T14:07:43.374Z,99710.00
2018-10-11T14:10:12.789Z,99710.00
2018-10-11T14:12:42.217Z,99715.00
2018-10-11T14:15:11.753Z,99711.00
2018-10-11T14:17:41.222Z,99706.00
2018-10-11T14:20:10.649Z,99700.00
2018-10-11T14:22:40.151Z,99701.00
2018-10-11T14:25:09.591Z,99701.00
2018-10-11T14:27:39.026Z,99697.00
2018-10-11T14:30:08.455Z,99698.00
2018-10-11T14:32:37.829Z,99696.00
2018-10-11T14:35:07.519Z,99698.00
2018-10-11T14:37:36.915Z,99690.00
2018-10-11T14:40:06.372Z,99698.00
2018-10-11T14:42:35.999Z,99708.00
2018-10-11T14:45:06.860Z,99709.00
2018-10-11T14:47:37.164Z,99700.00
2018-10-11T14:50:06.622Z,99696.00
2018-10-11T14:52:36.009Z,99698.00
2018-10-11T14:55:05.526Z,99709.00
2018-10-11T14:57:34.949Z,99708.00
2018-10-11T15:00:04.463Z,99707.00
2018-10-11T15:02:33.808Z,99707.00
2018-10-11T15:05:03.251Z,99704.00
2018-10-11T15:07:32.654Z,99701.00
2018-10-11T15:10:02.419Z,99697.00
2018-10-11T15:12:31.822Z,99701.00
2018-10-11T15:15:01.241Z,99696.00
2018-10-11T15:17:30.720Z,99697.00
2018-10-11T15:20:00.217Z,99693.00
2018-10-11T15:22:29.675Z,99695.00
2018-10-11T15:24:59.166Z,99703.00
2018-10-11T15:27:28.585Z,99698.00
2018-10-11T15:29:57.977Z,99698.00
2018-10-11T15:32:27.487Z,99696.00
2018-10-11T15:34:56.881Z,99701.00
2018-10-11T15:37:26.370Z,99699.00
2018-10-11T15:39:55.850Z,99700.00
2018-10-11T15:42:25.325Z,99697.00
2018-10-11T15:44:54.767Z,99700.00
2018-10-11T15:47:24.196Z,99707.00
2018-10-11T15:49:53.576Z,99710.00
2018-10-11T15:52:23.154Z,99707.00
2018-10-11T15:54:52.569Z,99706.00
2018-10-11T15:57:22.244Z,99706.00
2018-10-11T15:59:51.658Z,99710.00
2018-10-11T16:02:21.089Z,99711.00
2018-10-11T16:04:50.506Z,99712.00
2018-10-11T16:07:20.025Z,99717.00
2018-10-11T16:09:49.476Z,99717.00
2018-10-11T16:12:18.865Z,99716.00
2018-10-11T16:14:48.349Z,99717.00
2018-10-11T16:17:17.763Z,99714.00
2018-10-11T16:19:47.224Z,99728.00
2018-10-11T16:22:16.621Z,99720.00
2018-10-11T16:24:46.080Z,99715.00
2018-10-11T16:27:15.462Z,99725.00
2018-10-11T16:29:44.854Z,99726.00
2018-10-11T16:32:14.382Z,99732.00
2018-10-11T16:34:43.898Z,99736.00
2018-10-11T16:37:13.369Z,99731.00
2018-10-11T16:39:42.731Z,99732.00
2018-10-11T16:42:12.272Z,99743.00
2018-10-11T16:44:41.774Z,99747.00
2018-10-11T16:47:11.289Z,99744.00
2018-10-11T16:49:41.250Z,99737.00
2018-10-11T16:52:10.725Z,99737.00
2018-10-11T16:54:42.733Z,99738.00
2018-10-11T16:57:14.179Z,99745.00
2018-10-11T16:59:43.685Z,99752.00
2018-10-11T17:02:13.489Z,99746.00
2018-10-11T17:04:42.943Z,99744.00
2018-10-11T17:07:12.404Z,99751.00
2018-10-11T17:09:41.907Z,99757.00
2018-10-11T17:12:11.188Z,99755.00
2018-10-11T17:14:40.586Z,99756.00
2018-10-11T17:17:09.949Z,99763.00
2018-10-11T17:19:40.368Z,99763.00
2018-10-11T17:22:09.858Z,99775.00
2018-10-11T17:24:39.161Z,99760.00
2018-10-11T17:27:08.788Z,99763.00
2018-10-11T17:29:38.351Z,99766.00
2018-10-11T17:32:08.260Z,99760.00
2018-10-11T17:34:37.809Z,99764.00
2018-10-11T17:37:07.576Z,99762.00
2018-10-11T17:39:37.638Z,99767.00
2018-10-11T17:44:31.761Z,99764.00
2018-10-11T17:47:01.147Z,99759.00
2018-10-11T17:49:30.550Z,99762.00
2018-10-11T17:51:59.939Z,99763.00
2018-10-11T17:54:29.384Z,99775.00
2018-10-11T17:56:58.893Z,99768.00
2018-10-11T17:59:28.299Z,99761.00
2018-10-11T18:01:57.894Z,99765.00
2018-10-11T18:04:27.464Z,99764.00
2018-10-11T18:06:56.880Z,99770.00
2018-10-11T18:09:26.508Z,99769.00
2018-10-11T18:11:56.594Z,99774.00
2018-10-11T18:14:26.088Z,99764.00
2018-10-11T18:16:56.440Z,99761.00
2018-10-11T18:19:25.963Z,99760.00
2018-10-11T18:21:55.450Z,99758.00
2018-10-11T18:24:25.521Z,99753.00
2018-10-11T18:26:55.469Z,99752.00
2018-10-11T18:29:24.984Z,99755.00
2018-10-11T18:31:54.566Z,99762.00
2018-10-11T18:34:24.068Z,99759.00
2018-10-11T18:36:53.506Z,99753.00
2018-10-11T18:39:22.875Z,99754.00
2018-10-11T18:41:52.386Z,99761.00
2018-10-11T18:44:21.939Z,99764.00
2018-10-11T18:46:51.434Z,99762.00
2018-10-11T18:49:20.962Z,99761.00
2018-10-11T18:51:50.335Z,99761.00
2018-10-11T18:54:19.767Z,99759.00
2018-10-11T18:56:49.254Z,99769.00
2018-10-11T18:59:18.707Z,99772.00
2018-10-11T19:01:48.244Z,99777.00
2018-10-11T19:04:17.682Z,99776.00
2018-10-11T19:06:47.149Z,99777.00
2018-10-11T19:09:17.187Z,99777.00
2018-10-11T19:11:46.671Z,99783.00
2018-10-11T19:14:16.201Z,99785.00
2018-10-11T19:16:45.732Z,99783.00
2018-10-11T19:19:21.822Z,99795.00
2018-10-11T19:21:51.369Z,99790.00
2018-10-11T19:24:21.011Z,99798.00
2018-10-11T19:26:50.906Z,99792.00
2018-10-11T19:29:20.327Z,99799.00
2018-10-11T19:31:49.935Z,99798.00
2018-10-11T19:34:19.578Z,99806.00
2018-10-11T19:36:49.065Z,99807.00
2018-10-11T19:39:18.566Z,99808.00
2018-10-11T19:41:47.932Z,99803.00
2018-10-11T19:44:17.870Z,99805.00
2018-10-11T19:46:47.349Z,99802.00
2018-10-11T19:49:17.830Z,99806.00
2018-10-11T19:51:47.225Z,99810.00
2018-10-11T19:54:16.657Z,99808.00
2018-10-11T19:56:46.157Z,99811.00
2018-10-11T19:59:15.613Z,99801.00
2018-10-11T20:01:45.802Z,99804.00
2018-10-11T20:04:15.926Z,99807.00
2018-10-11T20:06:45.630Z,99809.00
2018-10-11T20:09:15.046Z,99802.00
2018-10-11T20:11:44.650Z,99807.00
2018-10-11T20:14:14.087Z,99818.00
2018-10-11T20:16:43.670Z,99812.00
2018-10-11T20:19:13.186Z,99819.00
2018-10-11T20:21:42.562Z,99822.00
2018-10-11T20:24:11.927Z,99823.00
2018-10-11T20:26:41.412Z,99826.00
2018-10-11T20:29:11.000Z,99821.00
2018-10-11T20:31:40.519Z,99826.00
2018-10-11T20:34:09.965Z,99825.00
2018-10-11T20:36:39.462Z,99826.00
2018-10-11T20:39:10.566Z,99820.00
2018-10-11T20:41:40.304Z,99812.00
2018-10-11T20:44:09.870Z,99820.00
2018-10-11T20:46:40.281Z,99822.00
2018-10-11T20:49:10.157Z,99819.00
2018-10-11T20:51:39.764Z,99827.00
2018-10-11T20:54:09.125Z,99818.00
2018-10-11T20:56:38.511Z,99827.00
2018-10-11T20:59:08.911Z,99831.00
2018-10-11T21:01:38.438Z,99828.00
2018-10-11T21:04:08.485Z,99832.00
2018-10-11T21:06:37.857Z,99832.00
2018-10-11T21:09:09.771Z,99826.00
2018-10-11T21:11:39.156Z,99839.00
2018-10-11T21:14:08.615Z,99834.00
2018-10-11T21:16:38.342Z,99835.00
2018-10-11T21:19:08.446Z,99837.00
2018-10-11T21:21:38.855Z,99830.00
2018-10-11T21:24:08.309Z,99840.00
2018-10-11T21:26:38.810Z,99841.00
2018-10-11T21:29:08.251Z,99846.00
2018-10-11T21:31:37.837Z,99849.00
2018-10-11T21:34:07.498Z,99840.00
2018-10-11T21:36:36.957Z,99830.00
2018-10-11T21:39:11.577Z,99849.00
2018-10-11T21:41:41.491Z,99843.00
2018-10-11T21:44:11.122Z,99838.00
2018-10-11T21:46:40.483Z,99837.00
2018-10-11T21:49:09.885Z,99841.00
2018-10-11T21:51:39.427Z,99834.00
2018-10-11T21:54:08.926Z,99840.00
2018-10-11T21:56:38.315Z,99832.00
2018-10-11T21:59:07.905Z,99841.00
2018-10-11T22:01:38.330Z,99836.00
2018-10-11T22:04:07.821Z,99840.00
2018-10-11T22:06:37.376Z,99839.00
2018-10-11T22:09:07.961Z,99840.00
2018-10-11T22:11:37.473Z,99834.00
2018-10-11T22:14:07.414Z,99842.00
2018-10-11T22:16:36.866Z,99834.00
2018-10-11T22:19:06.382Z,99830.00
2018-10-11T22:21:36.050Z,99845.00
2018-10-11T22:24:05.565Z,99845.00
2018-10-11T22:26:34.943Z,99841.00
2018-10-11T22:29:04.682Z,99843.00
2018-10-11T22:31:34.123Z,99845.00
2018-10-11T22:34:03.461Z,99842.00
2018-10-11T22:36:32.879Z,99842.00
2018-10-11T22:39:02.359Z,99836.00
2018-10-11T22:41:31.976Z,99847.00
2018-10-11T22:44:02.255Z,99841.00
2018-10-11T22:46:32.745Z,99849.00
2018-10-11T22:49:02.199Z,99845.00
2018-10-11T22:51:31.619Z,99847.00
2018-10-11T22:54:01.482Z,99849.00
2018-10-11T22:56:30.968Z,99838.00
2018-10-11T22:59:00.317Z,99837.00
2018-10-11T23:01:29.768Z,99850.00
2018-10-11T23:03:59.666Z,99854.00
2018-10-11T23:06:29.190Z,99851.00
2018-10-11T23:08:58.581Z,99852.00
2018-10-11T23:11:27.982Z,99855.00
2018-10-11T23:13:57.524Z,99848.00
2018-10-11T23:16:26.949Z,99854.00
2018-10-11T23:18:56.424Z,99851.00
2018-10-11T23:21:25.768Z,99852.00
2018-10-11T23:23:55.655Z,99854.00
2018-10-11T23:26:25.226Z,99864.00
2018-10-11T23:28:54.684Z,99864.00
2018-10-11T23:31:24.240Z,99860.00
2018-10-11T23:33:53.575Z,99858.00
2018-10-11T23:36:22.991Z,99861.00
2018-10-11T23:38:52.505Z,99860.00
2018-10-11T23:41:21.918Z,99857.00
2018-10-11T23:43:51.245Z,99857.00
2018-10-11T23:46:21.126Z,99857.00
2018-10-11T23:48:50.536Z,99851.00
2018-10-11T23:51:19.905Z,99858.00
2018-10-11T23:53:49.280Z,99858.00
2018-10-11T23:56:18.613Z,99852.00
2018-10-11T23:58:48.069Z,99841.00
